createdAt,value
2023-01-03T00:03:49.844Z,101375.28
2023-01-03T00:08:52.448Z,101373.47
2023-01-03T00:13:53.768Z,101372.16
2023-01-03T00:18:55.141Z,101382.50
2023-01-03T00:23:56.507Z,101378.41
2023-01-03T00:28:57.909Z,101366.72
2023-01-03T00:33:59.272Z,101372.66
2023-01-03T00:39:00.775Z,101388.34
2023-01-03T00:44:02.213Z,101380.72
2023-01-03T00:49:05.090Z,101396.84
2023-01-03T00:54:08.433Z,101393.00
2023-01-03T00:59:12.622Z,101387.19
2023-01-03T01:04:15.816Z,101394.28
2023-01-03T01:09:20.844Z,101394.97
2023-01-03T01:14:28.136Z,101412.22
2023-01-03T01:19:32.858Z,101421.69
2023-01-03T01:24:34.836Z,101416.44
2023-01-03T01:29:38.260Z,101424.91
2023-01-03T01:34:40.272Z,101424.50
2023-01-03T01:39:41.931Z,101432.84
2023-01-03T01:44:56.725Z,101439.34
2023-01-03T01:50:07.337Z,101440.06
2023-01-03T01:55:13.318Z,101448.53
2023-01-03T02:00:16.947Z,101449.25
2023-01-03T02:05:20.342Z,101449.63
2023-01-03T02:10:39.700Z,101453.19
2023-01-03T02:15:56.256Z,101461.66
2023-01-03T02:21:32.509Z,101463.59
2023-01-03T02:26:46.065Z,101460.50
2023-01-03T02:32:22.316Z,101452.16
2023-01-03T02:37:48.317Z,101459.47
2023-01-03T02:43:13.362Z,101448.75
2023-01-03T02:48:18.505Z,101458.50
2023-01-03T02:53:27.723Z,101471.47
2023-01-03T02:58:33.966Z,101475.28
2023-01-03T03:03:40.360Z,101482.75
2023-01-03T03:08:46.821Z,101482.91
2023-01-03T03:13:57.696Z,101486.13
2023-01-03T03:19:02.132Z,101488.94
2023-01-03T03:24:32.264Z,101478.03
2023-01-03T03:29:34.251Z,101493.22
2023-01-03T03:34:38.314Z,101496.97
2023-01-03T03:39:58.782Z,101488.97
2023-01-03T03:45:09.384Z,101494.69
2023-01-03T03:50:15.164Z,101509.13
2023-01-03T03:55:22.119Z,101502.88
2023-01-03T04:00:31.447Z,101515.31
2023-01-03T04:05:38.901Z,101518.78
2023-01-03T04:10:40.860Z,101517.00
2023-01-03T04:15:42.511Z,101520.81
2023-01-03T04:20:44.173Z,101522.31
2023-01-03T04:25:45.713Z,101525.97
2023-01-03T04:30:47.767Z,101522.56
2023-01-03T04:35:49.372Z,101520.28
2023-01-03T04:40:50.866Z,101518.25
2023-01-03T04:45:52.526Z,101539.16
2023-01-03T04:50:59.656Z,101543.06
2023-01-03T04:56:01.268Z,101543.56
2023-01-03T05:01:05.336Z,101538.56
2023-01-03T05:06:09.629Z,101540.63
2023-01-03T05:11:11.156Z,101539.16
2023-01-03T05:16:14.896Z,101536.03
2023-01-03T05:21:37.461Z,101537.25
2023-01-03T05:26:40.489Z,101544.16
2023-01-03T05:31:42.105Z,101546.97
2023-01-03T05:36:43.708Z,101543.41
2023-01-03T05:42:00.104Z,101548.75
2023-01-03T05:47:04.868Z,101552.91
2023-01-03T05:52:08.311Z,101548.91
2023-01-03T05:57:10.063Z,101552.78
2023-01-03T06:02:11.685Z,101561.50
2023-01-03T06:07:13.260Z,101569.88
2023-01-03T06:12:14.848Z,101568.66
2023-01-03T06:17:35.855Z,101577.41
2023-01-03T06:22:37.746Z,101575.56
2023-01-03T06:27:39.325Z,101572.41
2023-01-03T06:32:40.791Z,101575.19
2023-01-03T06:37:42.519Z,101572.53
2023-01-03T06:42:43.988Z,101577.44
2023-01-03T06:48:03.879Z,101582.41
2023-01-03T06:53:14.425Z,101590.44
2023-01-03T06:58:15.901Z,101588.50
2023-01-03T07:03:17.398Z,101586.44
2023-01-03T07:08:19.095Z,101590.69
2023-01-03T07:13:39.173Z,101589.47
2023-01-03T07:18:40.863Z,101604.03
2023-01-03T07:23:42.472Z,101600.75
2023-01-03T07:28:44.076Z,101614.44
2023-01-03T07:33:45.981Z,101615.16
2023-01-03T07:38:48.106Z,101630.56
2023-01-03T07:43:49.962Z,101626.47
2023-01-03T07:48:54.750Z,101639.72
2023-01-03T07:53:56.450Z,101642.53
2023-01-03T07:58:58.810Z,101648.16
2023-01-03T08:04:00.295Z,101661.38
2023-01-03T08:09:20.384Z,101660.75
2023-01-03T08:14:25.705Z,101662.66
2023-01-03T08:19:28.449Z,101674.91
2023-01-03T08:24:29.975Z,101678.53
2023-01-03T08:29:31.552Z,101679.00
2023-01-03T08:34:38.122Z,101671.81
2023-01-03T08:40:03.005Z,101668.72
2023-01-03T08:45:09.166Z,101682.00
2023-01-03T08:50:12.297Z,101684.41
2023-01-03T08:55:13.775Z,101698.28
2023-01-03T09:00:15.459Z,101696.91
2023-01-03T09:05:18.288Z,101695.66
2023-01-03T09:10:19.944Z,101700.69
2023-01-03T09:15:21.539Z,101700.88
2023-01-03T09:20:23.349Z,101692.31
2023-01-03T09:25:25.065Z,101695.03
2023-01-03T09:30:27.069Z,101698.75
2023-01-03T09:35:28.537Z,101705.44
2023-01-03T09:40:31.761Z,101702.75
2023-01-03T09:45:34.836Z,101701.91
2023-01-03T09:51:14.068Z,101711.84
2023-01-03T09:56:19.561Z,101711.81
2023-01-03T10:01:52.126Z,101707.66
2023-01-03T10:07:10.376Z,101707.09
2023-01-03T10:12:38.316Z,101696.69
2023-01-03T10:17:57.904Z,101696.69
2023-01-03T10:23:00.175Z,101696.47
2023-01-03T10:28:11.559Z,101691.50
2023-01-03T10:33:34.756Z,101684.28
2023-01-03T10:38:44.769Z,101688.25
2023-01-03T10:44:01.917Z,101685.53
2023-01-03T10:49:33.229Z,101687.13
2023-01-03T10:54:40.659Z,101674.13
2023-01-03T10:59:49.303Z,101669.22
2023-01-03T11:05:12.268Z,101676.69
2023-01-03T11:10:18.639Z,101672.84
2023-01-03T11:15:38.345Z,101674.84
2023-01-03T11:21:08.637Z,101673.28
2023-01-03T11:26:49.777Z,101670.59
2023-01-03T11:32:02.441Z,101668.16
2023-01-03T11:37:06.774Z,101669.91
2023-01-03T11:42:23.750Z,101681.38
2023-01-03T11:47:42.439Z,101674.28
2023-01-03T11:52:56.853Z,101665.66
2023-01-03T11:58:35.769Z,101663.97
2023-01-03T12:04:02.984Z,101659.16
2023-01-03T12:09:25.379Z,101649.25
2023-01-03T12:14:33.584Z,101651.94
2023-01-03T12:19:43.450Z,101639.31
2023-01-03T12:24:52.401Z,101639.31
2023-01-03T12:30:31.198Z,101635.31
2023-01-03T12:35:47.447Z,101637.19
2023-01-03T12:40:56.362Z,101629.81
2023-01-03T12:46:10.225Z,101626.50
2023-01-03T12:51:18.299Z,101622.03
2023-01-03T12:56:28.959Z,101623.28
2023-01-03T13:01:43.333Z,101617.88
2023-01-03T13:06:50.990Z,101609.88
2023-01-03T13:11:58.348Z,101605.06
2023-01-03T13:17:13.099Z,101602.63
2023-01-03T13:22:34.344Z,101592.94
2023-01-03T13:27:47.815Z,101589.69
2023-01-03T13:33:03.595Z,101585.31
2023-01-03T13:38:24.590Z,101589.69
2023-01-03T13:43:34.789Z,101583.88
2023-01-03T13:48:51.712Z,101587.56
2023-01-03T13:53:57.586Z,101587.81
2023-01-03T13:59:03.380Z,101591.28
2023-01-03T14:04:23.379Z,101591.00
2023-01-03T14:09:39.915Z,101590.22
2023-01-03T14:14:41.952Z,101590.78
2023-01-03T14:19:53.196Z,101579.47
2023-01-03T14:24:57.259Z,101589.34
2023-01-03T14:29:59.298Z,101588.66
2023-01-03T14:35:01.159Z,101592.09
2023-01-03T14:40:05.533Z,101586.56
2023-01-03T14:45:08.766Z,101583.03
2023-01-03T14:50:21.091Z,101587.63
2023-01-03T14:55:27.399Z,101585.34
2023-01-03T15:00:33.499Z,101593.81
2023-01-03T15:05:43.493Z,101591.84
2023-01-03T15:11:08.814Z,101593.34
2023-01-03T15:16:25.900Z,101598.88
2023-01-03T15:21:29.391Z,101608.69
2023-01-03T15:26:40.669Z,101619.19
2023-01-03T15:32:00.868Z,101616.34
2023-01-03T15:37:11.278Z,101614.75
2023-01-03T15:42:44.439Z,101623.13
2023-01-03T15:47:48.948Z,101617.59
2023-01-03T15:52:50.590Z,101613.44
2023-01-03T15:57:53.854Z,101607.69
2023-01-03T16:02:55.497Z,101618.38
2023-01-03T16:07:57.039Z,101614.75
2023-01-03T16:12:58.657Z,101623.44
2023-01-03T16:18:00.868Z,101612.31
2023-01-03T16:23:02.655Z,101622.41
2023-01-03T16:28:10.203Z,101616.38
2023-01-03T16:33:23.222Z,101608.44
2023-01-03T16:38:25.650Z,101606.66
2023-01-03T16:43:27.556Z,101621.94
2023-01-03T16:48:38.084Z,101621.50
2023-01-03T16:53:40.705Z,101630.53
2023-01-03T16:58:44.694Z,101643.44
2023-01-03T17:03:46.176Z,101635.06
2023-01-03T17:08:47.746Z,101629.69
2023-01-03T17:13:49.876Z,101626.88
2023-01-03T17:18:53.543Z,101637.91
2023-01-03T17:24:01.761Z,101628.28
2023-01-03T17:29:05.922Z,101633.94
2023-01-03T17:34:30.508Z,101640.25
2023-01-03T17:39:43.534Z,101633.47
2023-01-03T17:45:07.508Z,101632.13
2023-01-03T17:50:16.996Z,101635.34
2023-01-03T17:55:29.612Z,101633.75
2023-01-03T18:00:32.173Z,101635.66
2023-01-03T18:05:33.995Z,101639.56
2023-01-03T18:10:46.356Z,101644.00
2023-01-03T18:15:49.052Z,101645.19
2023-01-03T18:20:51.622Z,101649.38
2023-01-03T18:25:54.486Z,101641.97
2023-01-03T18:30:57.099Z,101652.47
2023-01-03T18:36:00.616Z,101651.31
2023-01-03T18:41:05.822Z,101649.28
2023-01-03T18:46:15.212Z,101649.91
2023-01-03T18:51:19.566Z,101657.59
2023-01-03T18:56:43.785Z,101654.97
2023-01-03T19:01:45.866Z,101664.09
2023-01-03T19:06:54.148Z,101662.53
2023-01-03T19:12:13.604Z,101661.78
2023-01-03T19:17:18.024Z,101653.03
2023-01-03T19:22:22.025Z,101660.13
2023-01-03T19:27:28.551Z,101654.56
2023-01-03T19:32:30.626Z,101645.59
2023-01-03T19:37:32.014Z,101644.97
2023-01-03T19:42:48.464Z,101645.34
2023-01-03T19:47:49.951Z,101641.31
2023-01-03T19:52:53.292Z,101629.06
2023-01-03T19:57:56.140Z,101634.53
2023-01-03T20:03:01.711Z,101626.50
2023-01-03T20:08:11.695Z,101627.22
2023-01-03T20:13:19.776Z,101624.53
2023-01-03T20:18:32.090Z,101614.06
2023-01-03T20:23:37.978Z,101590.69
2023-01-03T20:28:39.338Z,101596.28
2023-01-03T20:33:40.697Z,101589.44
2023-01-03T20:38:45.537Z,101590.22
2023-01-03T20:43:48.851Z,101588.09
2023-01-03T20:48:57.010Z,101588.03
2023-01-03T20:53:58.363Z,101587.78
2023-01-03T20:58:59.740Z,101573.28
2023-01-03T21:04:01.144Z,101567.97
2023-01-03T21:09:02.525Z,101565.69
2023-01-03T21:14:04.087Z,101558.06
2023-01-03T21:19:11.790Z,101564.84
2023-01-03T21:24:15.353Z,101562.91
2023-01-03T21:29:16.737Z,101566.81
2023-01-03T21:34:20.479Z,101564.59
2023-01-03T21:39:21.828Z,101562.06
2023-01-03T21:44:23.359Z,101563.59
2023-01-03T21:49:24.734Z,101558.84
2023-01-03T21:54:26.285Z,101542.88
2023-01-03T21:59:30.237Z,101540.06
2023-01-03T22:04:32.694Z,101521.31
2023-01-03T22:09:52.597Z,101525.00
2023-01-03T22:14:54.004Z,101524.84
2023-01-03T22:19:57.324Z,101522.34
2023-01-03T22:24:58.851Z,101528.56
2023-01-03T22:30:00.194Z,101519.25
2023-01-03T22:35:01.570Z,101529.56
2023-01-03T22:40:03.023Z,101526.06
2023-01-03T22:45:05.818Z,101517.59
2023-01-03T22:50:08.688Z,101523.25
2023-01-03T22:55:10.334Z,101529.16
2023-01-03T23:00:12.328Z,101527.75
2023-01-03T23:05:15.431Z,101532.00
2023-01-03T23:10:16.770Z,101519.88
2023-01-03T23:15:18.093Z,101520.16
2023-01-03T23:20:19.538Z,101508.59
2023-01-03T23:25:21.372Z,101503.34
2023-01-03T23:30:22.774Z,101489.38
2023-01-03T23:35:24.275Z,101486.41
2023-01-03T23:40:25.608Z,101485.09
2023-01-03T23:45:27.024Z,101487.44
2023-01-03T23:50:28.547Z,101486.66
2023-01-03T23:55:29.906Z,101471.47
